Data for 06/20/2010

Time Sea-Level Adjusted Pressure Absolute Pressure Temperature Relative Humidity Dew Point   
(mb) (inHg) (mb) (inHg) (C) (F) (%) (C) (F)
00:05 1020 30.12 849 25.07 10.6 51.2 78 7 44.6
00:10 1020 30.12 849 25.07 10.2 50.3 79 6.7 44.1
00:15 1020 30.12 849 25.07 10 49.9 79 6.6 43.8
00:20 1020 30.12 849 25.07 9.8 49.7 80 6.5 43.7
00:25 1020 30.12 849 25.07 9.7 49.4 79 6.2 43.2
00:30 1020 30.12 849 25.07 10 49.9 77 6.1 42.9
00:35 1020 30.12 849 25.07 10.2 50.3 76 6.1 42.9
00:40 1020 30.12 849 25.07 10.2 50.3 77 6.3 43.3
00:45 1020 30.12 849 25.07 10 49.9 77 6.1 43
00:50 1020 30.12 849 25.07 10 49.9 76 6 42.7
00:55 1020 30.12 850 25.1 10 49.9 74 5.6 42.1
01:00 1020 30.12 850 25.1 10.1 50.1 75 5.8 42.4
01:05 1020 30.12 850 25.1 10 50 79 6.5 43.7
01:10 1020 30.12 850 25.1 9.8 49.6 79 6.3 43.4
01:15 1020 30.12 850 25.1 9.8 49.6 79 6.3 43.4
01:20 1020 30.12 850 25.1 9.6 49.4 81 6.5 43.8
01:25 1020 30.12 850 25.1 9.4 49 81 6.4 43.5
01:30 1020 30.12 850 25.1 9.4 49 81 6.4 43.6
01:35 1020 30.12 850 25.1 9.2 48.6 82 6.3 43.3
01:40 1020 30.12 849 25.07 9.1 48.4 82 6.1 43
01:45 1020 30.12 849 25.07 9.1 48.4 81 6 42.9
01:50 1020 30.12 849 25.07 8.8 47.9 81 5.8 42.5
01:55 1020 30.12 849 25.07 8.7 47.6 81 5.7 42.2
02:00 1020 30.12 849 25.07 8.6 47.4 81 5.5 41.9
02:05 1020 30.12 849 25.07 8.3 47 83 5.6 42.1
02:10 1020 30.12 849 25.07 8.1 46.6 82 5.2 41.3
02:15 1020 30.12 849 25.07 8.1 46.6 81 5.1 41.2
02:20 1020 30.12 849 25.07 7.9 46.3 82 5.1 41.2
02:25 1020 30.12 849 25.07 7.7 45.9 83 5 40.9
02:30 1020 30.12 849 25.07 7.8 46 82 5 40.9
02:35 1020 30.12 849 25.07 7.8 46 82 4.9 40.7
02:40 1020 30.12 849 25.07 7.8 46 83 5 41
02:45 1020 30.12 849 25.07 7.6 45.7 82 4.8 40.6
02:50 1020 30.12 849 25.07 7.8 46.1 80 4.6 40.3
02:55 1020 30.12 849 25.07 8.1 46.6 79 4.6 40.3
03:00 1020 30.12 849 25.07 8.3 46.9 77 4.6 40.3
03:05 1020 30.12 849 25.07 8.1 46.6 79 4.8 40.6
03:10 1020 30.12 849 25.07 7.8 46 81 4.7 40.4
03:15 1020 30.12 849 25.07 7.7 45.8 81 4.6 40.3
03:20 1020 30.12 849 25.07 7.7 45.8 81 4.6 40.3
03:25 1020 30.12 849 25.07 7.6 45.7 81 4.6 40.2
03:30 1020 30.12 849 25.07 7.6 45.7 80 4.4 39.9
03:35 1020 30.12 849 25.07 7.7 45.8 80 4.4 40
03:40 1020 30.12 849 25.07 7.7 45.8 80 4.4 40
03:45 1020 30.12 849 25.07 7.6 45.7 80 4.4 39.9
03:50 1020 30.12 849 25.07 7.5 45.6 80 4.4 39.9
03:55 1020 30.12 849 25.07 7.7 45.8 80 4.4 39.9
04:00 1020 30.12 849 25.07 8 46.4 77 4.3 39.7
04:05 1020 30.12 849 25.07 8 46.4 77 4.3 39.7
04:10 1020 30.12 849 25.07 8.1 46.6 77 4.4 39.9
04:15 1020 30.12 849 25.07 8.1 46.5 77 4.4 39.8
04:20 1020 30.12 849 25.07 7.9 46.3 79 4.5 40
04:25 1020 30.12 849 25.07 7.7 45.9 79 4.4 39.9
04:30 1020 30.12 849 25.07 7.6 45.6 80 4.4 40
04:35 1020 30.12 849 25.07 7.3 45.2 81 4.4 39.9
04:40 1020 30.12 849 25.07 7.3 45.1 81 4.2 39.6
04:45 1020 30.12 849 25.07 7.5 45.5 79 4.1 39.4
04:50 1020 30.12 849 25.07 7.8 46 78 4.3 39.7
04:55 1020 30.12 849 25.07 8 46.3 77 4.2 39.5
05:00 1020 30.12 849 25.07 8.1 46.6 76 4.2 39.5
05:05 1020 30.12 849 25.07 8 46.4 78 4.4 39.9
05:10 1020 30.12 849 25.07 8 46.3 77 4.3 39.7
05:15 1020 30.12 849 25.07 7.9 46.3 79 4.5 40
05:20 1020 30.12 849 25.07 7.6 45.8 79 4.2 39.6
05:25 1020 30.12 849 25.07 7.7 45.9 78 4.2 39.5
05:30 1020 30.12 849 25.07 7.9 46.2 78 4.2 39.6
05:35 1020 30.12 849 25.07 7.3 45.1 81 4.2 39.5
05:40 1019 30.09 849 25.07 6.9 44.5 81 3.9 39
05:45 1019 30.09 849 25.07 6.9 44.3 82 4 39.3
05:50 1019 30.09 849 25.07 6.8 44.2 82 3.9 39
05:55 1019 30.09 849 25.07 6.9 44.5 80 3.7 38.6
06:00 1019 30.09 849 25.07 7.7 45.8 76 3.7 38.7
06:05 1019 30.09 849 25.07 8.4 47 75 4.1 39.4
06:10 1019 30.09 849 25.07 8.2 46.8 76 4.3 39.7
06:15 1019 30.09 848 25.04 7.7 45.9 79 4.4 39.9
06:20 1019 30.09 848 25.04 7.4 45.3 79 4.1 39.4
06:25 1019 30.09 848 25.04 7.4 45.3 80 4.1 39.4
06:30 1019 30.09 848 25.04 7.5 45.4 79 4 39.3
06:35 1019 30.09 848 25.04 7.4 45.3 81 4.3 39.7
06:40 1019 30.09 848 25.04 7.4 45.3 80 4.1 39.5
06:45 1019 30.09 848 25.04 7.7 45.8 79 4.3 39.7
06:50 1019 30.09 848 25.04 7.5 45.5 80 4.3 39.7
06:55 1019 30.09 848 25.04 7.5 45.5 80 4.3 39.7
07:00 1019 30.09 848 25.04 7.6 45.6 79 4.2 39.6
07:05 1019 30.09 848 25.04 7.8 46 79 4.4 39.8
07:10 1019 30.09 848 25.04 8 46.4 78 4.4 39.9
07:15 1019 30.09 848 25.04 8.5 47.3 77 4.6 40.3
07:20 1019 30.09 848 25.04 8.8 47.8 75 4.7 40.4
07:25 1019 30.09 848 25.04 8.9 47.9 77 5 41
07:30 1019 30.09 848 25.04 8.9 47.9 76 4.9 40.8
07:35 1019 30.09 848 25.04 8.9 48.1 76 5 41.1
07:40 1019 30.09 848 25.04 9.2 48.5 74 4.8 40.7
07:45 1019 30.09 848 25.04 9.4 48.9 74 5 41.1
07:50 1019 30.09 848 25.04 9.8 49.6 73 5.1 41.1
07:55 1019 30.09 848 25.04 10.1 50.1 72 5.3 41.6
08:00 1019 30.09 848 25.04 10.2 50.3 73 5.6 42.1
08:05 1019 30.09 848 25.04 10.6 51.1 71 5.5 42
08:10 1019 30.09 848 25.04 10.9 51.7 70 5.6 42.2
08:15 1019 30.09 848 25.04 11 51.8 71 6 42.9
08:20 1019 30.09 848 25.04 10.9 51.5 73 6.1 43.1
08:25 1019 30.09 848 25.04 11.6 52.9 68 5.9 42.5
08:30 1019 30.09 848 25.04 12.5 54.6 68 6.8 44.3
08:35 1019 30.09 848 25.04 12.2 53.9 67 6.4 43.5
08:40 1019 30.09 848 25.04 12.2 54 66 6.2 43.1
08:45 1019 30.09 848 25.04 12.5 54.6 67 6.6 43.9
08:50 1019 30.09 849 25.07 13.3 56 64 6.7 44.1
08:55 1019 30.09 849 25.07 13 55.3 64 6.3 43.3
09:00 1019 30.09 849 25.07 12.8 55 66 6.7 44
09:05 1019 30.09 849 25.07 12.4 54.4 66 6.3 43.3
09:10 1019 30.09 848 25.04 12.7 54.8 64 6.2 43.1
09:15 1019 30.09 848 25.04 12.9 55.2 62 6 42.7
09:20 1019 30.09 849 25.07 12.6 54.8 64 6.2 43.1
09:25 1019 30.09 849 25.07 12.5 54.5 66 6.3 43.3
09:30 1019 30.09 849 25.07 12.5 54.6 67 6.5 43.8
09:35 1019 30.09 848 25.04 12.5 54.4 67 6.4 43.6
09:40 1019 30.09 848 25.04 12.7 54.8 66 6.5 43.7
09:45 1019 30.09 848 25.04 12.9 55.3 66 6.8 44.3
09:50 1019 30.09 848 25.04 13 55.4 64 6.3 43.4
09:55 1019 30.09 848 25.04 13 55.5 64 6.5 43.7
10:00 1019 30.09 848 25.04 13.5 56.2 64 7 44.5
10:05 1019 30.09 848 25.04 13.6 56.5 63 6.8 44.3
10:10 1019 30.09 848 25.04 14 57.2 62 6.9 44.4
10:15 1019 30.09 848 25.04 14.4 58 59 6.6 43.9
10:20 1019 30.09 848 25.04 15.8 60.4 55 6.7 44.1
10:25 1019 30.09 848 25.04 16.2 61.1 56 7.4 45.3
10:30 1019 30.09 848 25.04 16.6 61.8 56 7.8 46.1
10:35 1019 30.09 848 25.04 16.7 62 53 7.2 45
10:40 1018 30.06 848 25.04 17 62.7 56 8.3 47
10:45 1018 30.06 848 25.04 16.7 62 55 7.8 46.1
10:50 1018 30.06 848 25.04 16.8 62.2 55 7.8 46.1
10:55 1018 30.06 848 25.04 16.6 61.8 58 8.3 46.9
11:00 1018 30.06 847 25.01 16.6 61.9 56 8 46.3
11:05 1018 30.06 847 25.01 17.3 63.2 55 8.4 47.1
11:10 1018 30.06 847 25.01 16.4 61.6 57 8 46.5
11:15 1018 30.06 847 25.01 16.5 61.7 57 8 46.4
11:20 1018 30.06 848 25.04 16.2 61.1 57 7.7 45.9
11:25 1018 30.06 848 25.04 16 60.8 57 7.7 45.8
11:30 1018 30.06 847 25.01 16 60.8 57 7.7 45.9
11:35 1018 30.06 847 25.01 17 62.6 54 7.8 46.1
11:40 1018 30.06 847 25.01 17.9 64.1 51 7.8 46
11:45 1018 30.06 847 25.01 16.4 61.5 61 8.8 47.9
11:50 1018 30.06 847 25.01 15.6 60 59 7.6 45.6
11:55 1018 30.06 847 25.01 16 60.9 56 7.4 45.4
12:00 1018 30.06 847 25.01 15.9 60.5 58 7.6 45.6
12:05 1018 30.06 847 25.01 17 62.6 52 7.2 45
12:10 1018 30.06 847 25.01 17.8 64.1 52 7.8 46.1
12:15 1018 30.06 847 25.01 18.3 64.9 51 8.2 46.7
12:20 1018 30.06 847 25.01 17.2 62.9 53 7.8 46
12:25 1018 30.06 847 25.01 17.2 62.9 51 7.1 44.8
12:30 1018 30.06 847 25.01 17.8 64 52 7.8 46
12:35 1018 30.06 847 25.01 17.5 63.6 53 8.1 46.6
12:40 1018 30.06 847 25.01 17.2 63 52 7.5 45.5
12:45 1018 30.06 847 25.01 17.3 63.2 54 7.9 46.2
12:50 1017 30.03 847 25.01 17.2 62.9 53 7.6 45.7
12:55 1017 30.03 847 25.01 17.4 63.3 53 7.7 45.9
13:00 1017 30.03 846 24.98 17.4 63.3 55 8.4 47.2
13:05 1017 30.03 846 24.98 17.4 63.3 55 8.5 47.2
13:10 1017 30.03 846 24.98 17.5 63.6 52 7.8 46
13:15 1017 30.03 846 24.98 17.5 63.6 52 7.8 46
13:20 1017 30.03 846 24.98 18.4 65 53 8.7 47.6
13:25 1017 30.03 846 24.98 18.4 65.2 51 8.4 47.1
13:30 1017 30.03 846 24.98 18.9 66 51 8.8 47.8
13:35 1017 30.03 846 24.98 18.6 65.4 55 9.4 49
13:40 1017 30.03 846 24.98 18.8 65.8 54 9.4 48.9
13:45 1017 30.03 846 24.98 18.6 65.6 53 9.1 48.4
13:50 1017 30.03 846 24.98 18.9 66.1 53 9.3 48.7
13:55 1017 30.03 846 24.98 19.4 67 51 9.1 48.4
14:00 1017 30.03 846 24.98 19.3 66.7 50 8.6 47.5
14:05 1017 30.03 846 24.98 19.6 67.3 51 9.3 48.8
14:10 1017 30.03 847 25.01 19.2 66.6 50 8.6 47.6
14:15 1017 30.03 847 25.01 19.2 66.6 50 8.6 47.4
14:20 1017 30.03 847 25.01 19.9 67.8 47 8.5 47.3
14:25 1018 30.06 847 25.01 19.7 67.5 49 8.9 47.9
14:30 1018 30.06 847 25.01 19.1 66.4 51 8.7 47.7
14:35 1018 30.06 847 25.01 18.9 65.9 52 8.9 48
14:40 1018 30.06 847 25.01 18.8 65.8 51 8.4 47.2
14:45 1018 30.06 847 25.01 18.6 65.4 54 9.3 48.8
14:50 1018 30.06 847 25.01 18.2 64.8 54 8.8 47.9
14:55 1018 30.06 847 25.01 18.2 64.8 56 9.4 48.9
15:00 1018 30.06 848 25.04 17.9 64.2 62 10.6 51
15:05 1018 30.06 847 25.01 17 62.6 66 10.8 51.4
15:10 1018 30.06 847 25.01 16.5 61.7 69 10.9 51.7
15:15 1018 30.06 847 25.01 16.1 61 70 10.6 51.1
15:20 1018 30.06 847 25.01 16 60.8 68 10.1 50.2
15:25 1018 30.06 847 25.01 15.9 60.5 66 9.6 49.2
15:30 1018 30.06 847 25.01 15.6 60.1 61 8.2 46.8
15:35 1018 30.06 847 25.01 15.7 60.3 63 8.8 47.8
15:40 1018 30.06 847 25.01 15.7 60.2 62 8.4 47.1
15:45 1017 30.03 847 25.01 15.3 59.6 52 5.7 42.3
15:50 1017 30.03 846 24.98 15.1 59.1 52 5.4 41.7
15:55 1017 30.03 846 24.98 14.8 58.7 53 5.3 41.6
16:00 1017 30.03 846 24.98 14.7 58.4 52 4.9 40.8
16:05 1017 30.03 846 24.98 14.5 58.2 53 5.2 41.4
16:10 1017 30.03 846 24.98 14.5 58.1 53 5.2 41.3
16:15 1017 30.03 846 24.98 14.6 58.3 52 5 40.9
16:20 1016 30 846 24.98 14.8 58.6 53 5.4 41.7
16:25 1016 30 846 24.98 15 58.9 52 5.3 41.6
16:30 1016 30 846 24.98 15.2 59.3 52 5.4 41.7
16:35 1016 30 846 24.98 15.8 60.4 49 5.1 41.2
16:40 1016 30 846 24.98 17.2 62.9 45 5.4 41.6
16:45 1016 30 846 24.98 17.5 63.5 47 6.1 42.9
16:50 1016 30 845 24.95 17.2 63 47 5.8 42.4
16:55 1016 30 845 24.95 17.4 63.3 48 6.3 43.3
17:00 1016 30 845 24.95 18.5 65.3 43 5.9 42.7
17:05 1016 30 845 24.95 18.3 64.9 42 5.4 41.7
17:10 1016 30 845 24.95 18.2 64.7 42 5.2 41.3
17:15 1016 30 845 24.95 18.6 65.5 38 4 39.2
17:20 1016 30 845 24.95 18.6 65.5 39 4.5 40
17:25 1016 30 845 24.95 18.7 65.6 35 3.2 37.7
17:30 1016 30 845 24.95 19.2 66.5 35 3.4 38
17:35 1016 30 845 24.95 19 66.2 34 2.8 37
17:40 1016 30 845 24.95 19.2 66.6 37 4.5 40.1
17:45 1016 30 845 24.95 18.9 66.1 39 4.7 40.4
17:50 1016 30 845 24.95 19.1 66.4 37 4.4 39.9
17:55 1016 30 845 24.95 19.6 67.3 39 5.3 41.6
18:00 1016 30 845 24.95 19.3 66.7 37 4.5 40.1
18:05 1016 30 846 24.98 18.9 66 39 4.8 40.7
18:10 1016 30 846 24.98 18.8 65.9 39 4.8 40.7
18:15 1016 30 846 24.98 18.7 65.6 40 4.8 40.7
18:20 1016 30 846 24.98 18.5 65.3 42 5.7 42.2
18:25 1016 30 845 24.95 18.4 65 43 5.6 42.2
18:30 1016 30 845 24.95 18.1 64.6 45 6.1 43
18:35 1016 30 845 24.95 17.8 64 46 6.2 43.1
18:40 1016 30 845 24.95 17.5 63.4 47 6 42.8
18:45 1016 30 845 24.95 17.2 63 47 5.9 42.7
18:50 1016 30 845 24.95 17.2 62.9 47 6 42.7
18:55 1016 30 845 24.95 17.1 62.8 47 5.9 42.7
19:00 1016 30 845 24.95 17.1 62.7 48 6 42.8
19:05 1016 30 845 24.95 17.1 62.8 48 6.1 43.1
19:10 1016 30 846 24.98 17.1 62.8 49 6.3 43.4
19:15 1016 30 846 24.98 16.9 62.3 54 7.5 45.5
19:20 1016 30 845 24.95 16.6 61.9 54 7.3 45.1
19:25 1016 30 845 24.95 16.4 61.5 55 7.4 45.3
19:30 1016 30 845 24.95 16.2 61.1 56 7.5 45.5
19:35 1016 30 846 24.98 16.1 60.9 55 7.2 44.9
19:40 1017 30.03 846 24.98 16.1 61 56 7.3 45.1
19:45 1017 30.03 846 24.98 16.2 61.1 58 8 46.4
19:50 1018 30.06 847 25.01 16.4 61.5 58 8.2 46.8
19:55 1018 30.06 847 25.01 15.4 59.6 63 8.4 47.1
20:00 1018 30.06 847 25.01 14 57.1 65 7.7 45.8
20:05 1019 30.09 848 25.04 12.8 55 72 7.8 46.1
20:10 1019 30.09 848 25.04 12.2 54 73 7.5 45.5
20:15 1019 30.09 849 25.07 12.2 53.9 74 7.7 45.8
20:20 1018 30.06 847 25.01 12 53.6 81 8.8 47.9
20:25 1016 30 846 24.98 11.4 52.5 83 8.6 47.6
20:30 1017 30.03 846 24.98 11.1 52 82 8.2 46.8
20:35 1018 30.06 847 25.01 11.1 52.1 80 7.8 46.1
20:40 1018 30.06 847 25.01 10.9 51.6 83 8.1 46.6
20:45 1018 30.06 847 25.01 10.7 51.2 83 7.9 46.2
20:50 1018 30.06 848 25.04 10.8 51.5 80 7.5 45.5
20:55 1019 30.09 848 25.04 11 51.9 80 7.7 45.8
21:00 1019 30.09 848 25.04 11 51.7 82 8.1 46.5
21:05 1019 30.09 848 25.04 10.9 51.7 80 7.7 45.9
21:10 1019 30.09 848 25.04 11 51.9 80 7.8 46
21:15 1019 30.09 849 25.07 11.2 52.1 79 7.6 45.7
21:20 1020 30.12 849 25.07 11.2 52.1 79 7.7 45.8
21:25 1020 30.12 849 25.07 11.2 52.1 80 7.9 46.2
21:30 1020 30.12 850 25.1 11.2 52.1 80 7.8 46
21:35 1020 30.12 850 25.1 11.2 52.2 81 8.1 46.6
21:40 1020 30.12 850 25.1 11.1 52.1 85 8.7 47.6
21:45 1020 30.12 849 25.07 11.1 51.9 85 8.7 47.7
21:50 1018 30.06 847 25.01 10.5 50.8 89 8.8 47.8
21:55 1019 30.09 848 25.04 10.4 50.6 88 8.5 47.3
22:00 1019 30.09 848 25.04 10.2 50.3 90 8.7 47.6
22:05 1019 30.09 848 25.04 10 49.9 89 8.2 46.8
22:10 1019 30.09 848 25.04 10 49.9 88 8.1 46.6
22:15 1019 30.09 848 25.04 10 50 89 8.2 46.8
22:20 1019 30.09 848 25.04 10 50.1 90 8.5 47.3
22:25 1019 30.09 848 25.04 10 50 90 8.4 47.1
22:30 1019 30.09 848 25.04 9.9 49.8 89 8.2 46.7
22:35 1019 30.09 848 25.04 9.8 49.7 88 8 46.3
22:40 1019 30.09 848 25.04 9.8 49.6 88 8 46.4
22:45 1019 30.09 848 25.04 9.8 49.6 88 8 46.3
22:50 1019 30.09 848 25.04 9.7 49.4 88 7.9 46.2
22:55 1019 30.09 848 25.04 9.7 49.5 87 7.7 45.9
23:00 1019 30.09 848 25.04 9.6 49.3 89 7.8 46.1
23:05 1019 30.09 848 25.04 9.4 48.8 89 7.6 45.6
23:10 1019 30.09 848 25.04 9.1 48.4 91 7.6 45.8
23:15 1019 30.09 848 25.04 8.8 47.8 91 7.4 45.3
23:20 1019 30.09 848 25.04 8.6 47.5 91 7.2 45
23:25 1019 30.09 848 25.04 8.6 47.4 90 7.1 44.8
23:30 1019 30.09 848 25.04 8.6 47.4 90 7 44.6
23:35 1019 30.09 848 25.04 8.6 47.5 90 7.1 44.8
23:40 1019 30.09 848 25.04 8.6 47.5 89 7 44.6
23:45 1019 30.09 848 25.04 8.6 47.5 90 7 44.6
23:50 1019 30.09 848 25.04 8.6 47.6 89 7 44.6
23:55 1019 30.09 848 25.04 8.6 47.4 89 6.9 44.3
24:00 1019 30.09 848 25.04 8.7 47.6 88 6.8 44.2